Time;durP1;ratioP1;P1;durP2;ratioP2;P2;SDS_P1;SDS_P2;PMS_P1;PMS_P2;Temp;Humidity;BMP_temperature;BMP_pressure;BME280_temperature;BME280_humidity;BME280_pressure;Samples;Min_cycle;Max_cycle;Signal;HPM_P1;HPM_P2
2022/10/06 00:01:03;;;;;;;5.47;3.17;;;;;;;14.47;60.81;101301.92;1757948;81;21176;-73
2022/10/06 00:03:30;;;;;;;6.03;3.17;;;;;;;14.47;60.90;101303.27;1758914;81;21278;-74
2022/10/06 00:06:01;;;;;;;5.77;3.50;;;;;;;14.47;60.91;101298.44;1756361;81;21280;-74
2022/10/06 00:08:30;;;;;;;5.93;3.20;;;;;;;14.45;60.98;101296.02;1758337;81;21314;-74
2022/10/06 00:10:57;;;;;;;5.00;3.33;;;;;;;14.58;60.82;101293.41;1758678;81;21973;-74
2022/10/06 00:13:25;;;;;;;7.13;3.60;;;;;;;14.64;60.71;101288.31;1758909;80;21887;-74
2022/10/06 00:15:53;;;;;;;7.17;3.50;;;;;;;14.50;60.94;101288.50;1762327;80;22037;-74
2022/10/06 00:18:20;;;;;;;7.00;3.10;;;;;;;14.46;61.07;101291.45;1753678;81;21263;-74
2022/10/06 00:20:58;;;;;;;9.43;3.37;;;;;;;14.45;61.06;101292.53;1754972;80;21206;-74
2022/10/06 00:23:25;;;;;;;8.30;3.23;;;;;;;14.39;61.11;101296.27;1754136;81;21904;-74
2022/10/06 00:25:51;;;;;;;6.80;3.80;;;;;;;14.34;61.22;101292.22;1753702;81;21325;-75
2022/10/06 00:28:18;;;;;;;5.63;3.10;;;;;;;14.35;61.33;101288.48;1753432;81;21218;-75
2022/10/06 00:30:45;;;;;;;5.43;3.47;;;;;;;14.35;61.34;101288.48;1728882;81;21316;-75
2022/10/06 00:33:15;;;;;;;6.77;3.70;;;;;;;14.39;61.37;101289.56;1754862;81;21799;-75
2022/10/06 00:35:42;;;;;;;7.33;3.30;;;;;;;14.53;61.01;101292.84;1753353;81;21176;-75
2022/10/06 00:38:14;;;;;;;6.47;3.47;;;;;;;14.55;60.91;101296.62;1753587;81;21304;-72
2022/10/06 00:40:49;;;;;;;5.03;3.42;;;;;;;14.52;60.85;101289.89;1754463;81;21756;-73
2022/10/06 00:43:47;;;;;;;6.57;3.43;;;;;;;14.44;60.98;101290.36;1753336;81;21436;-74
2022/10/06 00:46:39;;;;;;;8.67;3.80;;;;;;;14.36;61.15;101286.05;1750683;81;21296;-74
2022/10/06 00:49:33;;;;;;;8.07;3.80;;;;;;;14.31;61.20;101286.83;1753421;81;21275;-74
2022/10/06 00:52:04;;;;;;;6.93;3.50;;;;;;;14.29;61.23;101287.64;1728762;83;21293;-73
2022/10/06 00:54:32;;;;;;;9.18;3.40;;;;;;;14.24;61.23;101276.32;1742236;80;21233;-73
2022/10/06 00:56:58;;;;;;;6.13;3.40;;;;;;;14.20;61.32;101285.98;1751661;81;21035;-74
2022/10/06 00:59:25;;;;;;;6.30;3.27;;;;;;;14.18;61.34;101278.75;1754083;81;21392;-74
2022/10/06 01:02:04;;;;;;;8.60;3.40;;;;;;;14.28;61.17;101277.94;1754091;81;21300;-74
2022/10/06 01:04:35;;;;;;;4.87;3.47;;;;;;;14.15;61.35;101271.72;1758600;81;21069;-74
2022/10/06 01:07:02;;;;;;;6.10;3.60;;;;;;;14.07;61.56;101278.41;1758743;81;21129;-74
2022/10/06 01:09:29;;;;;;;4.73;3.30;;;;;;;14.01;61.70;101277.58;1725170;81;21246;-74
2022/10/06 01:12:00;;;;;;;5.97;3.40;;;;;;;13.98;61.83;101282.67;1728812;83;21248;-74
2022/10/06 01:14:26;;;;;;;7.67;3.50;;;;;;;13.95;61.95;101280.50;1750874;80;21898;-75
2022/10/06 01:17:07;;;;;;;4.93;3.40;;;;;;;13.94;62.04;101275.67;1757243;80;21341;-74
2022/10/06 01:19:53;;;;;;;6.00;3.43;;;;;;;13.91;62.11;101271.36;1757497;81;21291;-75
2022/10/06 01:22:37;;;;;;;6.43;3.57;;;;;;;13.87;62.21;101265.70;1758205;81;21298;-74
2022/10/06 01:25:06;;;;;;;9.37;3.87;;;;;;;13.86;62.23;101265.44;1758586;81;21812;-74
2022/10/06 01:27:36;;;;;;;7.60;3.80;;;;;;;13.81;62.31;101266.20;1761362;79;21352;-74
2022/10/06 01:30:04;;;;;;;6.27;3.57;;;;;;;13.77;62.38;101266.46;1729416;81;21300;-75
2022/10/06 01:32:34;;;;;;;8.20;3.90;;;;;;;13.74;62.46;101262.95;1761005;81;21238;-74
2022/10/06 01:35:00;;;;;;;7.77;3.97;;;;;;;13.69;62.51;101261.59;1707817;81;21113;-74
2022/10/06 01:37:28;;;;;;;8.53;3.87;;;;;;;13.63;62.54;101262.64;1761530;80;21212;-74
2022/10/06 01:39:54;;;;;;;6.13;3.50;;;;;;;13.57;62.64;101262.33;1721275;82;21729;-74
2022/10/06 01:42:23;;;;;;;6.27;3.50;;;;;;;13.53;62.71;101263.92;1727977;82;21161;-74
2022/10/06 01:44:50;;;;;;;7.20;3.47;;;;;;;13.46;62.82;101262.81;1730926;81;21205;-74
2022/10/06 01:47:16;;;;;;;9.17;3.47;;;;;;;13.38;62.87;101254.69;1770238;80;21285;-74
2022/10/06 01:49:43;;;;;;;6.57;3.63;;;;;;;13.34;63.01;101254.94;1758134;81;21314;-74
2022/10/06 01:52:11;;;;;;;6.47;3.80;;;;;;;13.29;63.16;101261.63;1758721;80;21660;-74
2022/10/06 01:54:37;;;;;;;6.67;3.53;;;;;;;13.24;63.24;101265.59;1758848;80;21176;-74
2022/10/06 01:57:07;;;;;;;7.80;3.70;;;;;;;13.21;63.35;101259.38;1758626;81;21302;-75
2022/10/06 01:59:33;;;;;;;6.10;3.30;;;;;;;13.19;63.39;101264.17;1748021;81;21262;-74
2022/10/06 02:02:01;;;;;;;6.63;3.90;;;;;;;13.15;63.45;101264.42;1755901;81;21308;-74
2022/10/06 02:04:29;;;;;;;6.17;3.60;;;;;;;13.12;63.52;101254.20;1757808;81;21778;-74
2022/10/06 02:06:56;;;;;;;5.73;3.40;;;;;;;13.09;63.56;101258.73;1758862;81;21872;-74
2022/10/06 02:09:22;;;;;;;7.00;3.43;;;;;;;13.07;63.68;101267.05;1756619;81;21284;-74
2022/10/06 02:11:50;;;;;;;9.07;3.67;;;;;;;13.06;63.82;101265.44;1758358;81;21308;-74
2022/10/06 02:14:19;;;;;;;6.27;3.60;;;;;;;13.05;63.89;101260.31;1758849;80;21859;-74
2022/10/06 02:16:49;;;;;;;;;;;;;;;13.02;63.79;101264.31;1760277;81;21100;-74
2022/10/06 02:19:16;;;;;;;5.57;3.30;;;;;;;12.99;63.77;101265.36;1754187;81;20130;-74
2022/10/06 02:21:43;;;;;;;7.30;3.80;;;;;;;12.92;63.68;101264.23;1754729;81;21263;-74
2022/10/06 02:24:09;;;;;;;7.63;4.30;;;;;;;12.87;63.68;101261.52;1751875;81;21277;-74
2022/10/06 02:26:36;;;;;;;8.93;3.60;;;;;;;12.82;63.81;101260.13;1754164;81;21218;-74
2022/10/06 02:29:03;;;;;;;6.80;3.90;;;;;;;12.75;63.96;101263.02;1753684;81;21089;-74
2022/10/06 02:31:30;;;;;;;7.17;3.57;;;;;;;12.71;64.09;101269.14;1752176;81;21734;-75
2022/10/06 02:33:59;;;;;;;6.73;3.70;;;;;;;12.67;64.21;101265.62;1755567;81;21753;-75
2022/10/06 02:36:25;;;;;;;7.73;3.60;;;;;;;12.65;64.39;101265.59;1767612;80;21173;-74
2022/10/06 02:38:52;;;;;;;7.00;3.60;;;;;;;12.61;64.47;101263.95;1765946;80;21235;-74
2022/10/06 02:41:19;;;;;;;6.17;3.85;;;;;;;12.57;64.47;101266.88;1728464;81;21834;-75
2022/10/06 02:43:46;;;;;;;6.17;3.50;;;;;;;12.53;64.56;101274.30;1759071;81;20996;-74
2022/10/06 02:46:14;;;;;;;6.00;3.30;;;;;;;12.50;64.58;101270.25;1759331;80;21223;-75
2022/10/06 02:48:43;;;;;;;7.43;3.70;;;;;;;12.44;64.55;101276.65;1757770;81;21391;-75
2022/10/06 02:51:14;;;;;;;8.10;3.50;;;;;;;12.40;64.50;101281.70;1759347;81;21164;-75
2022/10/06 02:53:44;;;;;;;7.03;3.47;;;;;;;12.36;64.50;101281.09;1758891;81;21248;-74
2022/10/06 02:56:18;;;;;;;7.67;3.57;;;;;;;12.30;64.63;101276.73;1760949;80;21051;-75
2022/10/06 02:58:49;;;;;;;5.03;3.53;;;;;;;12.30;64.71;101277.54;1762222;81;21894;-75
2022/10/06 03:01:26;;;;;;;5.45;3.60;;;;;;;12.24;64.86;101273.21;1762203;81;21693;-75
2022/10/06 03:03:55;;;;;;;7.20;4.12;;;;;;;12.22;64.96;101271.84;1762395;81;21587;-75
2022/10/06 03:06:25;;;;;;;6.67;3.58;;;;;;;12.29;64.80;101277.80;1725524;83;21079;-75
2022/10/06 03:08:58;;;;;;;;;;;;;;;12.17;65.06;101280.59;1756202;81;20997;-75
2022/10/06 03:11:33;;;;;;;9.43;4.08;;;;;;;12.24;65.01;101282.59;1754801;80;20168;-76
2022/10/06 03:13:59;;;;;;;7.67;3.45;;;;;;;12.11;65.06;101278.41;1750857;81;21555;-76
2022/10/06 03:16:35;;;;;;;5.87;3.30;;;;;;;12.07;65.00;101285.84;1750594;81;21465;-76
2022/10/06 03:19:04;;;;;;;5.05;3.55;;;;;;;11.99;64.95;101276.38;1751212;81;22139;-74
2022/10/06 03:21:34;;;;;;;7.95;3.52;;;;;;;11.94;64.88;101280.31;1751991;81;21023;-74
2022/10/06 03:24:02;;;;;;;6.15;3.52;;;;;;;11.89;64.76;101276.25;1753557;81;21020;-74
2022/10/06 03:26:33;;;;;;;6.50;3.30;;;;;;;11.82;64.71;101276.40;1750757;81;21518;-74
2022/10/06 03:29:00;;;;;;;6.50;3.10;;;;;;;11.77;64.71;101276.31;1752237;81;20996;-74
2022/10/06 03:31:27;;;;;;;5.33;3.30;;;;;;;11.72;64.69;101277.61;1756209;80;21840;-74
2022/10/06 03:33:55;;;;;;;5.92;3.55;;;;;;;11.65;64.69;101276.98;1729091;83;21056;-75
2022/10/06 03:36:25;;;;;;;5.22;3.15;;;;;;;11.60;64.71;101283.58;1771270;80;20996;-74
2022/10/06 03:38:52;;;;;;;6.10;3.20;;;;;;;11.55;64.71;101282.16;1774502;80;21028;-75
2022/10/06 03:41:22;;;;;;;7.28;2.95;;;;;;;11.54;64.54;101272.52;1768262;80;21412;-75
2022/10/06 03:43:50;;;;;;;7.55;3.02;;;;;;;11.44;64.66;101272.64;1761600;80;21136;-72
2022/10/06 03:46:20;;;;;;;5.70;3.10;;;;;;;11.40;64.70;101268.84;1747209;82;21071;-75
2022/10/06 03:48:47;;;;;;;4.97;2.95;;;;;;;11.35;64.73;101270.13;1747225;82;21213;-74
2022/10/06 03:51:29;;;;;;;5.45;2.98;;;;;;;11.28;64.88;101274.80;1756189;80;21025;-74
2022/10/06 03:53:57;;;;;;;5.33;3.62;;;;;;;11.25;64.93;101282.81;1758779;81;21060;-74
2022/10/06 03:56:29;;;;;;;6.20;3.58;;;;;;;11.23;65.07;101282.77;1754968;81;21054;-74
2022/10/06 03:59:01;;;;;;;5.50;3.30;;;;;;;11.22;65.25;101289.98;1758612;80;21024;-74
2022/10/06 04:01:40;;;;;;;9.03;4.25;;;;;;;11.22;65.44;101286.47;1716474;82;21121;-75
2022/10/06 04:04:10;;;;;;;6.25;4.05;;;;;;;11.21;65.64;101283.52;1728959;83;21549;-75
2022/10/06 04:06:40;;;;;;;9.28;4.35;;;;;;;11.18;66.01;101286.67;1752990;81;20961;-75
2022/10/06 04:09:12;;;;;;;7.08;3.83;;;;;;;11.17;66.33;101287.73;1758098;81;21044;-73
2022/10/06 04:11:40;;;;;;;9.58;4.30;;;;;;;11.16;66.68;101284.79;1758660;81;21020;-73
2022/10/06 04:14:10;;;;;;;6.43;3.90;;;;;;;11.25;66.79;101284.64;1758315;80;21191;-74
2022/10/06 04:16:42;;;;;;;7.30;4.47;;;;;;;11.27;67.00;101288.70;1758028;81;21083;-74
2022/10/06 04:19:10;;;;;;;7.65;4.33;;;;;;;11.29;67.28;101289.81;1758205;81;21091;-74
2022/10/06 04:21:42;;;;;;;7.00;4.72;;;;;;;11.33;67.52;101290.13;1758928;81;27248;-74
2022/10/06 04:24:10;;;;;;;9.05;4.28;;;;;;;11.37;67.74;101283.23;1758899;81;21529;-75
2022/10/06 04:26:47;;;;;;;6.62;4.37;;;;;;;11.41;67.95;101287.84;1756898;81;21008;-75
2022/10/06 04:29:14;;;;;;;6.95;4.40;;;;;;;11.44;68.19;101283.34;1758784;81;21048;-75
2022/10/06 04:31:42;;;;;;;8.23;4.55;;;;;;;11.51;68.30;101285.31;1761142;81;21490;-75
2022/10/06 04:34:14;;;;;;;9.10;4.25;;;;;;;11.55;68.41;101284.33;1723857;81;21495;-74
2022/10/06 04:36:41;;;;;;;6.85;4.17;;;;;;;11.60;68.48;101283.58;1755729;80;21059;-74
2022/10/06 04:39:11;;;;;;;7.22;4.70;;;;;;;11.63;68.61;101287.10;1737076;82;21020;-75
2022/10/06 04:41:41;;;;;;;10.80;4.47;;;;;;;11.62;68.83;101286.30;1761657;81;21055;-75
2022/10/06 04:44:09;;;;;;;8.00;4.42;;;;;;;11.68;68.92;101296.02;1755755;81;21061;-74
2022/10/06 04:46:36;;;;;;;9.38;4.45;;;;;;;11.73;68.94;101293.93;1755010;81;21075;-75
2022/10/06 04:49:05;;;;;;;7.50;4.25;;;;;;;11.81;68.89;101298.84;1757929;81;21555;-75
2022/10/06 04:51:33;;;;;;;8.55;3.98;;;;;;;11.83;68.88;101299.42;1758241;81;21001;-75
2022/10/06 04:54:02;;;;;;;6.95;4.10;;;;;;;11.86;68.83;101292.80;1760958;81;21051;-74
2022/10/06 04:56:31;;;;;;;6.65;3.72;;;;;;;11.87;68.78;101293.88;1727559;82;21229;-74
2022/10/06 04:59:00;;;;;;;8.65;4.12;;;;;;;11.91;68.71;101291.52;1730546;82;21138;-75
2022/10/06 05:01:34;;;;;;;7.33;4.17;;;;;;;11.91;68.63;101288.84;1761353;80;21446;-75
2022/10/06 05:04:04;;;;;;;8.33;4.63;;;;;;;11.93;68.54;101294.77;1732724;81;21021;-75
2022/10/06 05:06:38;;;;;;;7.20;4.35;;;;;;;11.94;68.50;101292.36;1757351;81;21735;-74
2022/10/06 05:09:14;;;;;;;;;;;;;;;11.93;68.43;101294.23;1758309;81;20978;-74
2022/10/06 05:11:44;;;;;;;7.12;4.30;;;;;;;11.95;68.37;101293.47;1753846;81;20139;-73
2022/10/06 05:14:13;;;;;;;6.62;4.47;;;;;;;11.98;68.33;101292.17;1758392;81;21060;-74
2022/10/06 05:16:42;;;;;;;11.48;5.85;;;;;;;12.03;68.30;101295.43;1757626;81;21539;-74
2022/10/06 05:19:11;;;;;;;6.28;4.17;;;;;;;12.09;68.24;101295.78;1761065;80;21304;-74
2022/10/06 05:21:41;;;;;;;8.25;4.15;;;;;;;12.17;68.12;101306.05;1728169;81;21106;-74
2022/10/06 05:24:09;;;;;;;7.65;5.10;;;;;;;12.25;67.93;101297.59;1732612;81;21243;-74
2022/10/06 05:26:38;;;;;;;10.25;5.12;;;;;;;12.36;67.83;101303.33;1728405;81;21064;-74
2022/10/06 05:29:07;;;;;;;8.83;4.67;;;;;;;12.47;67.64;101302.94;1720883;81;21027;-74
2022/10/06 05:31:39;;;;;;;8.47;4.90;;;;;;;12.57;67.19;101312.43;1725103;81;21301;-74
2022/10/06 05:34:07;;;;;;;6.77;4.53;;;;;;;12.69;67.10;101309.59;1760667;80;21706;-74
2022/10/06 05:36:34;;;;;;;8.80;4.30;;;;;;;12.80;66.67;101312.66;1761357;81;21287;-75
2022/10/06 05:39:03;;;;;;;9.73;4.90;;;;;;;12.90;66.52;101303.38;1743639;79;21254;-73
2022/10/06 05:41:32;;;;;;;9.07;4.03;;;;;;;13.04;66.25;101302.42;1759070;81;21268;-74
2022/10/06 05:44:02;;;;;;;9.80;4.47;;;;;;;13.17;65.96;101303.07;1710810;83;21259;-74
2022/10/06 05:46:31;;;;;;;7.43;4.30;;;;;;;13.27;65.47;101304.52;1707156;83;21094;-75
2022/10/06 05:49:06;;;;;;;7.12;3.90;;;;;;;13.38;65.06;101303.52;1755287;81;21248;-75
2022/10/06 05:51:36;;;;;;;8.33;4.60;;;;;;;13.50;64.63;101300.12;1752610;80;21088;-75
2022/10/06 05:54:04;;;;;;;7.60;4.13;;;;;;;13.59;64.00;101305.84;1753931;80;21254;-74
2022/10/06 05:56:35;;;;;;;8.27;4.10;;;;;;;13.66;63.60;101303.73;1729953;81;21262;-73
2022/10/06 05:59:03;;;;;;;9.68;4.42;;;;;;;13.72;63.31;101306.72;1756872;80;21799;-73
2022/10/06 06:01:34;;;;;;;7.80;4.37;;;;;;;13.76;62.89;101304.33;1756884;80;21109;-73
2022/10/06 06:04:05;;;;;;;6.67;4.05;;;;;;;13.80;62.56;101302.19;1704585;83;21284;-73
2022/10/06 06:06:40;;;;;;;9.23;4.58;;;;;;;13.86;62.35;101305.72;1754699;80;20994;-75
2022/10/06 06:09:17;;;;;;;7.87;3.47;;;;;;;13.95;62.39;101307.36;1756487;80;21104;-74
2022/10/06 06:11:49;;;;;;;7.03;3.57;;;;;;;14.04;62.19;101305.27;1757284;81;21769;-73
2022/10/06 06:17:06;;;;;;;6.73;3.60;;;;;;;14.26;61.29;101315.84;1745525;80;21057;-72
2022/10/06 06:19:34;;;;;;;8.13;3.37;;;;;;;14.39;60.67;101309.72;1756857;80;21326;-73
2022/10/06 06:22:01;;;;;;;6.50;3.60;;;;;;;14.50;60.33;101308.66;1756746;80;21461;-74
2022/10/06 06:24:28;;;;;;;7.07;3.50;;;;;;;14.61;59.79;101319.77;1745979;80;21170;-74
2022/10/06 06:26:55;;;;;;;7.93;3.30;;;;;;;14.71;59.47;101320.33;1758412;81;21598;-73
2022/10/06 06:29:23;;;;;;;6.43;3.60;;;;;;;14.83;59.17;101311.99;1757063;80;21290;-74
2022/10/06 06:31:49;;;;;;;6.80;3.50;;;;;;;14.93;59.11;101322.22;1756962;80;21375;-74
2022/10/06 06:34:17;;;;;;;7.63;3.30;;;;;;;15.07;58.88;101317.14;1758445;80;21330;-74
2022/10/06 06:36:46;;;;;;;7.13;3.70;;;;;;;15.19;58.45;101323.59;1757790;81;21392;-74
2022/10/06 06:39:14;;;;;;;10.40;3.40;;;;;;;15.44;57.87;101318.75;1756062;80;21418;-74
2022/10/06 06:41:44;;;;;;;9.00;3.90;;;;;;;15.54;57.13;101327.36;1758273;81;21424;-74
2022/10/06 06:44:30;;;;;;;5.93;3.50;;;;;;;15.54;57.13;101327.36;1757324;80;21387;-74
2022/10/06 06:47:02;;;;;;;5.90;3.20;;;;;;;15.65;56.83;101322.21;1756698;80;21404;-73
2022/10/06 06:49:32;;;;;;;9.07;3.50;;;;;;;15.73;56.13;101322.22;1754620;80;20949;-72
2022/10/06 06:52:02;;;;;;;8.30;3.40;;;;;;;15.84;56.20;101325.98;1757544;80;21500;-73
2022/10/06 06:54:29;;;;;;;5.97;3.30;;;;;;;15.93;55.64;101317.61;1758085;80;21637;-74
2022/10/06 06:56:58;;;;;;;7.57;3.27;;;;;;;15.99;54.82;101302.24;1760762;81;22226;-74
2022/10/06 06:59:24;;;;;;;5.00;3.43;;;;;;;16.04;54.73;101309.48;1731855;82;21697;-72
2022/10/06 07:01:53;;;;;;;6.53;3.27;;;;;;;16.13;55.10;101311.89;1759994;79;21612;-74
2022/10/06 07:04:22;;;;;;;8.37;3.20;;;;;;;16.25;54.98;101311.55;1757027;80;21769;-74
2022/10/06 07:06:57;;;;;;;7.00;3.27;;;;;;;16.35;54.33;101304.77;1752405;80;21790;-74
2022/10/06 07:09:29;;;;;;;6.00;3.13;;;;;;;16.44;53.94;101317.13;1759003;80;21735;-73
2022/10/06 07:12:03;;;;;;;6.40;3.20;;;;;;;16.50;53.59;101314.13;1757618;80;22206;-74
2022/10/06 07:14:29;;;;;;;6.70;3.33;;;;;;;16.55;53.06;101306.55;1732049;82;22229;-74
2022/10/06 07:25:22;;;;;;;6.23;3.10;;;;;;;16.81;53.14;101304.02;1726669;82;21711;-73
2022/10/06 07:27:50;;;;;;;7.60;3.30;;;;;;;16.91;52.42;101305.00;1729456;82;21790;-74
2022/10/06 07:30:24;;;;;;;7.00;3.80;;;;;;;16.96;52.05;101307.13;1735686;81;21752;-75
2022/10/06 07:32:53;;;;;;;5.60;3.30;;;;;;;17.05;52.37;101314.09;1708064;82;21724;-74
2022/10/06 07:35:42;;;;;;;7.33;3.23;;;;;;;17.13;51.93;101305.92;1723798;82;21677;-74
2022/10/06 07:38:24;;;;;;;6.77;3.17;;;;;;;17.23;51.58;101312.03;1711199;82;21681;-75
2022/10/06 07:40:55;;;;;;;7.97;3.20;;;;;;;17.34;51.65;101308.70;1752658;81;21723;-75
2022/10/06 07:43:37;;;;;;;4.77;3.13;;;;;;;17.58;51.51;101301.45;1758576;81;21132;-73
2022/10/06 07:46:22;;;;;;;6.00;3.10;;;;;;;17.58;51.51;101301.45;1733132;80;21537;-75
2022/10/06 07:49:21;;;;;;;8.03;3.27;;;;;;;17.77;51.25;101300.22;1757907;81;21559;-74
2022/10/06 07:51:49;;;;;;;7.08;3.42;;;;;;;17.94;50.73;101302.45;1510756;81;9999893;-72
2022/10/06 07:54:24;;;;;;;4.93;3.27;;;;;;;17.98;49.76;101296.73;1625019;80;10000345;-73
2022/10/06 07:56:52;;;;;;;;;;;;;;;17.96;49.14;101292.14;1755517;80;21601;-73
2022/10/06 07:59:29;;;;;;;8.33;4.70;;;;;;;17.97;49.54;101290.27;1728652;81;20202;-74
2022/10/06 08:02:05;;;;;;;9.03;4.40;;;;;;;18.02;49.89;101294.25;1756342;81;21236;-75
2022/10/06 08:04:33;;;;;;;6.70;3.10;;;;;;;18.15;49.93;101288.69;1754460;81;21107;-74
2022/10/06 08:07:03;;;;;;;6.37;3.30;;;;;;;18.31;49.65;101286.05;1753105;81;21128;-74
2022/10/06 08:09:31;;;;;;;6.13;3.23;;;;;;;18.38;49.10;101291.89;1755136;81;21015;-74
2022/10/06 08:20:18;;;;;;;7.53;3.17;;;;;;;18.56;48.19;101278.66;1634164;86;21128;-73
2022/10/06 08:23:00;;;;;;;4.30;3.10;;;;;;;18.65;48.38;101280.41;1694898;83;21049;-74
2022/10/06 08:29:17;;;;;;;;;;;;;;;;;;;;;
2022/10/06 08:31:44;;;;;;;5.27;2.80;;;;;;;18.87;47.46;101275.78;1520024;90;21243;-72
2022/10/06 08:34:12;;;;;;;6.43;3.10;;;;;;;18.96;47.35;101274.57;1577661;90;21093;-74
2022/10/06 08:36:39;;;;;;;5.53;2.57;;;;;;;19.04;47.28;101263.61;1641923;83;21522;-72
2022/10/06 08:39:06;;;;;;;6.17;2.87;;;;;;;19.12;46.49;101266.45;1704395;83;21120;-73
2022/10/06 08:41:45;;;;;;;6.57;2.90;;;;;;;19.11;45.66;101259.41;1701006;82;21090;-73
2022/10/06 08:44:19;;;;;;;5.83;2.50;;;;;;;19.15;45.51;101259.09;1678280;85;21754;-72
2022/10/06 08:47:55;;;;;;;;;;;;;;;;;;;;;
2022/10/06 08:50:21;;;;;;;5.20;2.60;;;;;;;19.24;45.24;101252.41;1564431;90;21713;-72
2022/10/06 08:53:09;;;;;;;5.97;2.97;;;;;;;19.34;45.89;101251.43;1636836;85;21082;-74
2022/10/06 08:55:58;;;;;;;6.73;2.80;;;;;;;19.39;45.59;101250.80;1687244;85;21071;-74
2022/10/06 08:59:02;;;;;;;5.83;2.80;;;;;;;19.49;45.45;101255.22;1709085;82;21132;-74
2022/10/06 09:02:08;;;;;;;;;;;;;;;;;;;;;
2022/10/06 09:05:21;;;;;;;4.83;2.63;;;;;;;19.73;44.91;101246.13;1717918;81;21049;-73
2022/10/06 09:08:44;;;;;;;5.37;2.80;;;;;;;19.73;44.37;101240.15;1729426;81;21061;-72
2022/10/06 09:11:35;;;;;;;4.30;2.57;;;;;;;19.75;44.87;101240.66;1700855;81;21013;-73
2022/10/06 09:14:14;;;;;;;4.47;2.43;;;;;;;19.88;44.70;101237.14;1720883;81;21491;-73
2022/10/06 09:16:48;;;;;;;6.93;2.43;;;;;;;20.03;44.07;101243.33;1725075;81;21025;-73
2022/10/06 09:19:29;;;;;;;5.63;2.80;;;;;;;20.06;43.58;101238.09;1723435;81;21056;-73
2022/10/06 09:21:59;;;;;;;4.63;2.53;;;;;;;20.14;44.13;101240.67;1729649;82;20969;-73
2022/10/06 09:24:44;;;;;;;9.60;3.33;;;;;;;20.31;44.38;101244.09;1730707;82;21144;-73
2022/10/06 09:27:36;;;;;;;5.37;2.80;;;;;;;20.42;42.93;101240.58;1730980;83;21192;-72
2022/10/06 09:30:01;;;;;;;5.07;2.50;;;;;;;20.47;43.32;101243.99;1700167;84;21093;-72
2022/10/06 09:32:29;;;;;;;7.13;2.73;;;;;;;20.53;42.99;101246.05;1719267;83;20966;-73
2022/10/06 09:34:58;;;;;;;5.37;2.37;;;;;;;20.60;43.05;101235.59;1732019;83;21121;-73
2022/10/06 09:37:26;;;;;;;5.50;2.70;;;;;;;20.70;42.82;101242.12;1731032;83;20983;-73
2022/10/06 09:39:53;;;;;;;12.17;3.30;;;;;;;20.77;42.73;101238.98;1731112;82;21139;-72
2022/10/06 09:42:31;;;;;;;6.10;2.77;;;;;;;20.86;43.21;101242.53;1730308;83;21037;-74
2022/10/06 09:45:17;;;;;;;4.77;2.60;;;;;;;20.97;42.90;101238.47;1729212;83;21128;-72
2022/10/06 09:47:45;;;;;;;4.03;2.27;;;;;;;21.10;42.30;101235.42;1728497;82;21137;-73
2022/10/06 09:50:27;;;;;;;5.30;2.40;;;;;;;21.20;41.80;101233.00;1717213;83;21083;-74
2022/10/06 09:53:03;;;;;;;4.60;2.43;;;;;;;21.24;40.86;101239.41;1717104;83;21339;-73
2022/10/06 09:55:34;;;;;;;5.87;2.40;;;;;;;21.36;40.66;101236.16;1686648;85;20973;-73
2022/10/06 09:58:01;;;;;;;6.35;2.40;;;;;;;21.31;40.47;101229.69;1713373;83;21105;-74
2022/10/06 10:00:37;;;;;;;4.50;2.40;;;;;;;21.35;40.58;101237.25;1686770;83;21058;-70
2022/10/06 10:03:10;;;;;;;3.93;2.40;;;;;;;21.41;40.54;101227.28;1716996;83;21600;-73
2022/10/06 10:05:49;;;;;;;4.67;2.40;;;;;;;21.50;40.18;101235.48;1717602;83;21832;-73
2022/10/06 10:08:23;;;;;;;3.57;2.30;;;;;;;21.54;39.88;101235.88;1716374;82;20962;-73
2022/10/06 10:13:58;;;;;;;5.13;2.50;;;;;;;21.70;39.62;101230.03;1717262;83;20984;-72
2022/10/06 10:16:27;;;;;;;4.17;2.57;;;;;;;21.68;39.73;101226.25;1717204;83;21065;-73
2022/10/06 10:18:54;;;;;;;3.83;2.30;;;;;;;21.71;39.31;101236.50;1686621;85;21087;-72
2022/10/06 10:21:28;;;;;;;4.63;2.47;;;;;;;21.69;39.19;101233.31;1716739;83;21096;-73
2022/10/06 10:23:57;;;;;;;4.33;2.20;;;;;;;21.65;39.67;101220.11;1705260;83;21114;-73
2022/10/06 10:26:52;;;;;;;4.60;2.87;;;;;;;21.71;40.12;101233.78;1717220;83;21504;-73
2022/10/06 10:29:31;;;;;;;5.17;2.43;;;;;;;21.77;40.18;101231.16;1659657;86;21127;-73
2022/10/06 10:32:19;;;;;;;4.43;2.40;;;;;;;21.88;39.11;101227.61;1688291;84;21100;-73
2022/10/06 10:35:00;;;;;;;6.70;2.70;;;;;;;21.90;39.29;101219.12;1688678;84;21582;-73
2022/10/06 10:38:07;;;;;;;4.67;2.10;;;;;;;21.96;39.62;101212.41;1710630;83;21069;-73
2022/10/06 10:40:41;;;;;;;6.37;2.33;;;;;;;22.05;39.64;101215.95;1702954;83;21006;-73
2022/10/06 10:43:21;;;;;;;4.17;2.30;;;;;;;22.10;38.95;101216.34;1717447;83;21002;-73
2022/10/06 10:46:15;;;;;;;4.27;2.10;;;;;;;22.14;39.09;101210.50;1704034;83;21274;-73
2022/10/06 10:49:00;;;;;;;4.67;2.30;;;;;;;22.19;38.64;101214.47;1689125;85;21092;-74
2022/10/06 10:51:57;;;;;;;6.27;2.80;;;;;;;22.17;38.26;101214.77;1668300;85;21456;-74
2022/10/06 10:54:38;;;;;;;5.63;2.50;;;;;;;22.21;38.67;101223.09;1659919;83;21048;-73
2022/10/06 10:57:15;;;;;;;4.97;2.70;;;;;;;22.26;38.22;101214.78;1717407;83;20989;-73
2022/10/06 10:59:57;;;;;;;3.13;2.17;;;;;;;22.25;37.99;101213.20;1714448;83;21261;-71
2022/10/06 11:02:24;;;;;;;4.87;2.80;;;;;;;22.27;38.12;101212.30;1714821;83;21046;-72
2022/10/06 11:04:59;;;;;;;4.13;1.93;;;;;;;22.29;37.53;101217.44;1689196;85;21032;-72
2022/10/06 11:07:43;;;;;;;4.67;2.43;;;;;;;22.31;38.18;101212.45;1683407;85;20978;-74
2022/10/06 11:10:21;;;;;;;4.67;2.50;;;;;;;22.37;38.42;101207.89;1686009;85;20974;-72
2022/10/06 11:13:14;;;;;;;5.00;2.10;;;;;;;22.46;36.99;101205.97;1699116;83;21212;-75
2022/10/06 11:16:10;;;;;;;4.63;2.37;;;;;;;22.46;37.45;101206.53;1717446;83;21059;-73
2022/10/06 11:18:57;;;;;;;5.10;2.40;;;;;;;22.47;37.86;101206.77;1717604;83;21674;-72
2022/10/06 11:21:35;;;;;;;3.87;2.37;;;;;;;22.50;37.42;101206.69;1686514;85;21646;-72
2022/10/06 11:24:33;;;;;;;4.07;2.60;;;;;;;22.44;36.83;101200.60;1717413;83;21194;-72
2022/10/06 11:27:24;;;;;;;5.17;2.57;;;;;;;22.40;37.59;101198.29;1687341;85;21146;-73
2022/10/06 11:30:14;;;;;;;5.97;2.63;;;;;;;22.40;37.25;101196.93;1716527;83;21481;-72
2022/10/06 11:33:13;;;;;;;11.93;3.10;;;;;;;22.40;37.45;101195.00;1717317;83;21081;-72
2022/10/06 11:35:43;;;;;;;11.13;3.27;;;;;;;22.52;37.55;101184.84;1717268;83;21014;-72
2022/10/06 11:38:27;;;;;;;7.70;2.30;;;;;;;22.58;37.36;101186.27;1717246;83;21041;-73
2022/10/06 11:41:30;;;;;;;3.53;2.20;;;;;;;22.65;37.93;101190.66;1691983;83;21354;-72
2022/10/06 11:44:36;;;;;;;4.93;2.27;;;;;;;22.73;37.34;101182.23;1688979;84;21144;-73
2022/10/06 11:47:10;;;;;;;3.90;2.53;;;;;;;22.77;37.58;101193.27;1689106;85;21109;-72
2022/10/06 11:49:54;;;;;;;5.10;2.30;;;;;;;22.87;37.43;101190.23;1709594;83;21055;-73
2022/10/06 11:52:27;;;;;;;6.47;2.40;;;;;;;22.85;37.09;101187.02;1717678;83;21029;-74
2022/10/06 11:55:13;;;;;;;4.57;2.33;;;;;;;22.89;37.37;101200.22;1717557;83;21304;-74
2022/10/06 11:58:10;;;;;;;6.30;2.47;;;;;;;22.83;36.01;101193.34;1717202;83;21246;-73
2022/10/06 12:00:42;;;;;;;7.87;2.43;;;;;;;22.79;36.80;101189.67;1687363;85;21459;-73
2022/10/06 12:03:31;;;;;;;9.18;2.80;;;;;;;22.84;37.45;101184.06;1717469;83;20981;-74
2022/10/06 12:06:01;;;;;;;6.97;2.73;;;;;;;22.92;37.67;101190.83;1717483;83;21063;-73
2022/10/06 12:08:37;;;;;;;6.10;2.57;;;;;;;22.97;37.09;101179.55;1717255;83;21165;-74
2022/10/06 12:11:37;;;;;;;6.20;2.80;;;;;;;23.02;37.35;101180.75;1717535;83;21480;-73
2022/10/06 12:14:07;;;;;;;4.50;2.43;;;;;;;23.02;36.78;101167.92;1716652;83;21100;-71
2022/10/06 12:16:35;;;;;;;9.47;3.10;;;;;;;22.92;35.81;101170.41;1686618;85;21228;-73
2022/10/06 12:19:28;;;;;;;5.43;2.50;;;;;;;22.86;36.55;101178.51;1717138;83;21567;-73
2022/10/06 12:22:09;;;;;;;3.60;2.03;;;;;;;22.84;36.68;101169.09;1717843;83;21942;-73
2022/10/06 12:24:58;;;;;;;5.20;2.20;;;;;;;22.82;37.03;101172.13;1716526;83;21497;-72
2022/10/06 12:27:51;;;;;;;5.80;2.70;;;;;;;22.89;36.63;101179.80;1687368;85;21008;-73